createdAt,value
2023-01-07T00:00:06.132Z,612.00
2023-01-07T00:05:05.345Z,658.00
2023-01-07T00:10:03.561Z,632.00
2023-01-07T00:15:02.774Z,614.00
2023-01-07T00:20:02.171Z,621.00
2023-01-07T00:25:02.279Z,619.00
2023-01-07T00:30:01.569Z,626.00
2023-01-07T00:35:00.874Z,624.00
2023-01-07T00:40:00.201Z,627.00
2023-01-07T00:44:59.456Z,627.00
2023-01-07T00:49:57.746Z,629.00
2023-01-07T00:54:59.064Z,631.00
2023-01-07T00:59:58.339Z,629.00
2023-01-07T01:04:58.634Z,624.00
2023-01-07T01:09:55.925Z,624.00
2023-01-07T01:14:54.256Z,634.00
2023-01-07T01:19:53.589Z,632.00
2023-01-07T01:24:52.909Z,631.00
2023-01-07T01:29:53.463Z,625.00
2023-01-07T01:34:51.391Z,626.00
2023-01-07T01:39:51.701Z,630.00
2023-01-07T01:44:50.975Z,637.00
2023-01-07T01:49:49.272Z,650.00
2023-01-07T01:54:49.585Z,624.00
2023-01-07T01:59:48.853Z,635.00
2023-01-07T02:04:48.132Z,633.00
2023-01-07T02:09:47.435Z,652.00
2023-01-07T02:14:45.739Z,634.00
2023-01-07T02:19:45.105Z,624.00
2023-01-07T02:24:44.248Z,628.00
2023-01-07T02:29:42.581Z,638.00
2023-01-07T02:34:43.907Z,646.00
2023-01-07T02:39:43.180Z,630.00
2023-01-07T02:44:41.469Z,641.00
2023-01-07T02:49:41.791Z,642.00
2023-01-07T02:54:39.057Z,646.00
2023-01-07T02:59:39.350Z,644.00
2023-01-07T03:04:39.718Z,638.00
2023-01-07T03:09:38.849Z,641.00
2023-01-07T03:14:36.919Z,643.00
2023-01-07T03:19:37.224Z,650.00
2023-01-07T03:24:35.557Z,644.00
2023-01-07T03:29:36.666Z,648.00
2023-01-07T03:34:33.973Z,646.00
2023-01-07T03:39:33.274Z,659.00
2023-01-07T03:44:32.617Z,643.00
2023-01-07T03:49:31.934Z,642.00
2023-01-07T03:54:32.336Z,651.00
2023-01-07T03:59:32.470Z,639.00
2023-01-07T04:04:31.089Z,652.00
2023-01-07T04:09:29.221Z,612.00
2023-01-07T04:14:29.280Z,653.00
2023-01-07T04:19:28.581Z,650.00
2023-01-07T04:24:26.768Z,664.00
2023-01-07T04:29:25.886Z,663.00
2023-01-07T04:34:26.209Z,674.00
2023-01-07T04:39:25.531Z,664.00
2023-01-07T04:44:23.887Z,648.00
2023-01-07T04:49:25.022Z,639.00
2023-01-07T04:54:23.341Z,659.00
2023-01-07T04:59:22.651Z,653.00
2023-01-07T05:04:21.995Z,671.00
2023-01-07T05:09:20.099Z,652.00
2023-01-07T05:14:20.400Z,655.00
2023-01-07T05:19:18.712Z,676.00
2023-01-07T05:24:18.042Z,679.00
2023-01-07T05:29:16.814Z,650.00
2023-01-07T05:34:15.564Z,664.00
2023-01-07T05:39:15.726Z,628.00
2023-01-07T05:44:15.863Z,663.00
2023-01-07T05:49:14.046Z,651.00
2023-01-07T05:54:13.244Z,666.00
2023-01-07T05:59:14.409Z,687.00
2023-01-07T06:04:11.553Z,667.00
2023-01-07T06:09:12.713Z,673.00
2023-01-07T06:14:10.856Z,672.00
2023-01-07T06:19:09.167Z,645.00
2023-01-07T06:24:08.737Z,667.00
2023-01-07T06:29:07.521Z,642.00
2023-01-07T06:34:07.699Z,654.00
2023-01-07T06:39:05.965Z,648.00
2023-01-07T06:44:05.306Z,660.00
2023-01-07T06:49:04.534Z,678.00
2023-01-07T06:54:04.886Z,650.00
2023-01-07T06:59:02.995Z,652.00
2023-01-07T07:04:03.355Z,654.00
2023-01-07T07:09:03.529Z,668.00
2023-01-07T07:14:01.834Z,669.00
2023-01-07T07:19:00.016Z,667.00
2023-01-07T07:24:00.228Z,667.00
2023-01-07T07:28:59.383Z,674.00
2023-01-07T07:33:58.507Z,663.00
2023-01-07T07:38:57.645Z,710.00
2023-01-07T07:43:55.810Z,692.00
2023-01-07T07:48:55.962Z,683.00
2023-01-07T07:53:55.104Z,659.00
2023-01-07T07:58:53.419Z,688.00
2023-01-07T08:03:52.547Z,676.00
2023-01-07T08:08:52.876Z,675.00
2023-01-07T08:13:52.221Z,663.00
2023-01-07T08:18:50.336Z,671.00
2023-01-07T08:23:49.690Z,673.00
2023-01-07T08:28:49.361Z,642.00
2023-01-07T08:33:49.355Z,645.00
2023-01-07T08:38:47.498Z,671.00
2023-01-07T08:43:47.533Z,663.00
2023-01-07T08:48:47.849Z,634.00
2023-01-07T08:53:46.184Z,650.00
2023-01-07T08:58:44.450Z,661.00
2023-01-07T09:03:43.778Z,659.00
2023-01-07T09:08:43.081Z,633.00
2023-01-07T09:13:42.369Z,671.00
2023-01-07T09:18:41.682Z,650.00
2023-01-07T09:23:41.003Z,642.00
2023-01-07T09:28:41.317Z,623.00
2023-01-07T09:33:39.631Z,640.00
2023-01-07T09:38:38.955Z,635.00
2023-01-07T09:43:59.631Z,635.00
2023-01-07T09:48:38.441Z,614.00
2023-01-07T09:53:36.750Z,620.00
2023-01-07T09:58:38.046Z,593.00
2023-01-07T10:03:35.267Z,599.00
2023-01-07T10:08:35.593Z,616.00
2023-01-07T10:13:33.912Z,609.00
2023-01-07T10:18:33.315Z,651.00
2023-01-07T10:23:32.452Z,635.00
2023-01-07T10:28:32.588Z,639.00
2023-01-07T10:33:31.903Z,637.00
2023-01-07T10:38:30.266Z,619.00
2023-01-07T10:43:29.442Z,629.00
2023-01-07T10:48:28.598Z,621.00
2023-01-07T10:53:28.999Z,619.00
2023-01-07T10:58:27.185Z,624.00
2023-01-07T11:03:28.515Z,613.00
2023-01-07T11:08:26.862Z,642.00
2023-01-07T11:13:24.948Z,623.00
2023-01-07T11:18:23.253Z,617.00
2023-01-07T11:23:24.577Z,617.00
2023-01-07T11:28:23.854Z,610.00
2023-01-07T11:33:22.166Z,613.00
2023-01-07T11:38:22.471Z,594.00
2023-01-07T11:43:20.764Z,632.00
2023-01-07T11:48:20.073Z,622.00
2023-01-07T11:53:19.383Z,576.00
2023-01-07T11:58:29.926Z,598.00
2023-01-07T12:03:17.945Z,576.00
2023-01-07T12:08:17.069Z,575.00
2023-01-07T12:13:16.386Z,583.00
2023-01-07T12:18:15.706Z,558.00
2023-01-07T12:23:15.011Z,555.00
2023-01-07T12:28:14.334Z,526.00
2023-01-07T12:33:14.654Z,554.00
2023-01-07T12:38:12.987Z,559.00
2023-01-07T12:43:12.112Z,559.00
2023-01-07T12:48:12.471Z,566.00
2023-01-07T12:53:11.547Z,580.00
2023-01-07T12:58:09.856Z,553.00
2023-01-07T13:03:09.143Z,560.00
2023-01-07T13:08:08.462Z,551.00
2023-01-07T13:13:07.747Z,553.00
2023-01-07T13:18:07.922Z,557.00
2023-01-07T13:23:06.233Z,581.00
2023-01-07T13:28:06.552Z,545.00
2023-01-07T13:33:04.894Z,557.00
2023-01-07T13:38:06.029Z,557.00
2023-01-07T13:43:04.164Z,573.00
2023-01-07T13:48:02.316Z,573.00
2023-01-07T13:53:02.466Z,567.00
2023-01-07T13:58:02.619Z,561.00
2023-01-07T14:03:01.083Z,584.00
2023-01-07T14:08:00.181Z,564.00
2023-01-07T14:12:59.326Z,562.00
2023-01-07T14:17:58.493Z,566.00
2023-01-07T14:22:57.827Z,581.00
2023-01-07T14:27:58.140Z,550.00
2023-01-07T14:32:55.449Z,562.00
2023-01-07T14:37:55.756Z,558.00
2023-01-07T14:42:55.089Z,561.00
2023-01-07T14:47:54.189Z,535.00
2023-01-07T14:52:52.501Z,549.00
2023-01-07T14:57:51.823Z,580.00
2023-01-07T15:02:53.020Z,532.00
2023-01-07T15:07:51.282Z,556.00
2023-01-07T15:12:49.308Z,561.00
2023-01-07T15:17:48.417Z,543.00
2023-01-07T15:22:48.706Z,535.00
2023-01-07T15:27:48.017Z,527.00
2023-01-07T15:32:49.934Z,564.00
2023-01-07T15:37:46.569Z,561.00
2023-01-07T15:42:46.662Z,550.00
2023-01-07T15:47:44.934Z,577.00
2023-01-07T15:52:43.240Z,584.00
2023-01-07T15:57:42.529Z,575.00
2023-01-07T16:02:42.765Z,600.00
2023-01-07T16:07:41.156Z,569.00
2023-01-07T16:12:40.249Z,594.00
2023-01-07T16:17:39.582Z,568.00
2023-01-07T16:22:39.888Z,588.00
2023-01-07T16:27:38.203Z,600.00
2023-01-07T16:32:37.543Z,619.00
2023-01-07T16:37:37.722Z,632.00
2023-01-07T16:42:35.849Z,628.00
2023-01-07T16:47:36.152Z,624.00
2023-01-07T16:52:35.458Z,683.00
2023-01-07T16:57:34.766Z,665.00
2023-01-07T17:02:32.903Z,681.00
2023-01-07T17:07:33.029Z,656.00
2023-01-07T17:12:32.373Z,668.00
2023-01-07T17:17:31.537Z,692.00
2023-01-07T17:22:30.690Z,693.00
2023-01-07T17:27:30.012Z,682.00
2023-01-07T17:32:29.335Z,664.00
2023-01-07T17:37:29.651Z,650.00
2023-01-07T17:42:26.757Z,657.00
2023-01-07T17:47:26.056Z,659.00
2023-01-07T17:52:25.367Z,674.00
2023-01-07T17:57:24.717Z,659.00
2023-01-07T18:02:26.014Z,623.00
2023-01-07T18:07:23.026Z,649.00
2023-01-07T18:12:22.295Z,675.00
2023-01-07T18:17:21.566Z,628.00
2023-01-07T18:22:21.840Z,639.00
2023-01-07T18:27:21.132Z,626.00
2023-01-07T18:32:19.445Z,649.00
2023-01-07T18:37:18.756Z,620.00
2023-01-07T18:42:18.053Z,630.00
2023-01-07T18:47:18.359Z,618.00
2023-01-07T18:52:18.650Z,610.00
2023-01-07T18:57:15.975Z,607.00
2023-01-07T19:02:15.310Z,586.00
2023-01-07T19:07:14.617Z,585.00
2023-01-07T19:12:15.920Z,561.00
2023-01-07T19:17:14.218Z,564.00
2023-01-07T19:22:14.517Z,550.00
2023-01-07T19:27:11.782Z,589.00
2023-01-07T19:32:11.084Z,601.00
2023-01-07T19:37:10.388Z,599.00
2023-01-07T19:42:10.713Z,610.00
2023-01-07T19:47:09.040Z,603.00
2023-01-07T19:52:08.344Z,588.00
2023-01-07T19:57:07.718Z,619.00
2023-01-07T20:02:08.012Z,593.00
2023-01-07T20:07:07.047Z,582.00
2023-01-07T20:12:05.177Z,605.00
2023-01-07T20:17:04.323Z,570.00
2023-01-07T20:22:03.494Z,574.00
2023-01-07T20:27:02.664Z,532.00
2023-01-07T20:32:01.917Z,595.00
2023-01-07T20:37:00.123Z,577.00
2023-01-07T20:42:00.236Z,609.00
2023-01-07T20:46:59.539Z,578.00
2023-01-07T20:52:03.578Z,573.00
2023-01-07T20:56:58.981Z,573.00
2023-01-07T21:01:57.371Z,599.00
2023-01-07T21:06:56.498Z,567.00
2023-01-07T21:11:55.741Z,579.00
2023-01-07T21:16:54.957Z,598.00
2023-01-07T21:21:55.154Z,577.00
2023-01-07T21:26:52.324Z,588.00
2023-01-07T21:31:52.579Z,589.00
2023-01-07T21:36:51.770Z,594.00
2023-01-07T21:41:49.960Z,592.00
2023-01-07T21:46:52.208Z,585.00
2023-01-07T21:51:50.503Z,582.00
2023-01-07T21:56:48.830Z,595.00
2023-01-07T22:01:49.366Z,585.00
2023-01-07T22:06:50.323Z,615.00
2023-01-07T22:11:49.928Z,584.00
2023-01-07T22:16:49.076Z,607.00
2023-01-07T22:21:45.213Z,588.00
2023-01-07T22:26:45.411Z,589.00
2023-01-07T22:31:44.572Z,574.00
2023-01-07T22:36:42.757Z,580.00
2023-01-07T22:41:42.923Z,599.00
2023-01-07T22:46:41.245Z,615.00
2023-01-07T22:51:40.901Z,611.00
2023-01-07T22:56:39.719Z,604.00
2023-01-07T23:01:39.014Z,600.00
2023-01-07T23:06:39.284Z,584.00
2023-01-07T23:11:37.648Z,608.00
2023-01-07T23:16:36.837Z,602.00
2023-01-07T23:21:36.928Z,618.00
2023-01-07T23:26:35.231Z,606.00
2023-01-07T23:31:34.552Z,617.00
2023-01-07T23:36:33.690Z,599.00
2023-01-07T23:41:35.013Z,622.00
2023-01-07T23:46:33.321Z,558.00
2023-01-07T23:51:31.574Z,628.00
2023-01-07T23:56:31.866Z,586.00
